Time;durP1;ratioP1;P1;durP2;ratioP2;P2;SDS_P1;SDS_P2;PMS_P1;PMS_P2;Temp;Humidity;BMP_temperature;BMP_pressure;BME280_temperature;BME280_humidity;BME280_pressure;Samples;Min_cycle;Max_cycle;Signal;HPM_P1;HPM_P2
2023/12/22 00:01:26;;;;;;;16.30;2.60;;;;;;;3.59;75.32;98474.47;10486368;28;20526;-79
2023/12/22 00:06:29;;;;;;;19.63;3.10;;;;;;;3.67;74.87;98448.13;10499444;28;20068;-81
2023/12/22 00:11:33;;;;;;;19.58;3.22;;;;;;;3.81;74.76;98457.59;10496130;28;20036;-81
2023/12/22 00:16:37;;;;;;;31.27;5.22;;;;;;;3.69;76.28;98461.28;10499900;28;20037;-80
2023/12/22 00:21:40;;;;;;;24.15;3.08;;;;;;;3.91;76.53;98470.97;10484278;28;20084;-80
2023/12/22 00:26:45;;;;;;;21.17;3.65;;;;;;;3.52;82.88;98462.69;10508581;28;20041;-81
2023/12/22 00:31:48;;;;;;;30.08;4.03;;;;;;;3.48;96.65;98541.75;10483664;28;20052;-80
2023/12/22 00:36:52;;;;;;;13.02;2.78;;;;;;;1.80;100.00;98529.13;10486218;28;20132;-81
2023/12/22 00:41:57;;;;;;;18.65;2.08;;;;;;;1.56;100.00;98531.75;10493662;28;20045;-82
2023/12/22 00:47:00;;;;;;;11.27;1.73;;;;;;;1.46;100.00;98550.13;10494879;28;20041;-82
2023/12/22 00:52:03;;;;;;;12.45;2.10;;;;;;;1.82;100.00;98543.09;10504403;28;20044;-82
2023/12/22 00:57:08;;;;;;;16.90;1.88;;;;;;;1.78;100.00;98554.00;10512947;28;20760;-83
2023/12/22 01:02:11;;;;;;;11.18;2.17;;;;;;;1.68;100.00;98541.47;10498978;28;20068;-76
2023/12/22 01:07:14;;;;;;;15.82;2.90;;;;;;;2.16;100.00;98535.25;10522443;28;20056;-81
2023/12/22 01:12:18;;;;;;;12.15;2.03;;;;;;;2.13;100.00;98544.28;10473505;28;20049;-83
2023/12/22 01:17:21;;;;;;;19.00;2.97;;;;;;;2.99;100.00;98584.56;10489152;28;20116;-82
2023/12/22 01:22:24;;;;;;;13.52;2.28;;;;;;;2.40;100.00;98572.31;10486064;28;20079;-83
2023/12/22 01:27:29;;;;;;;13.30;1.88;;;;;;;1.09;100.00;98609.25;10499513;28;20092;-81
2023/12/22 01:32:35;;;;;;;12.57;2.38;;;;;;;1.08;100.00;98608.41;10508625;28;20051;-78
2023/12/22 01:37:38;;;;;;;11.73;1.90;;;;;;;1.02;100.00;98575.31;10481119;28;20056;-78
2023/12/22 01:42:43;;;;;;;8.32;0.90;;;;;;;0.80;100.00;98560.13;10470160;28;20044;-78
2023/12/22 01:47:47;;;;;;;8.40;1.27;;;;;;;0.55;100.00;98558.31;10473805;28;20041;-80
2023/12/22 01:52:51;;;;;;;10.23;1.60;;;;;;;0.79;100.00;98555.75;10473018;28;20063;-79
2023/12/22 01:57:56;;;;;;;11.02;2.15;;;;;;;0.82;100.00;98582.00;10470699;28;20041;-80
2023/12/22 02:02:59;;;;;;;11.23;1.35;;;;;;;1.04;100.00;98602.50;10468916;28;20053;-79
2023/12/22 02:08:03;;;;;;;14.18;2.65;;;;;;;1.16;100.00;98606.06;10454590;28;20055;-79
2023/12/22 02:13:09;;;;;;;15.38;2.17;;;;;;;1.82;100.00;98597.84;10477149;28;20051;-78
2023/12/22 02:18:16;;;;;;;19.77;2.78;;;;;;;1.90;100.00;98590.19;10457384;28;20143;-78
2023/12/22 02:23:20;;;;;;;23.75;3.45;;;;;;;2.40;100.00;98591.69;10473530;28;20492;-79
2023/12/22 02:28:24;;;;;;;23.38;2.65;;;;;;;2.27;100.00;98598.88;10453223;28;20117;-78
2023/12/22 02:33:30;;;;;;;20.80;2.78;;;;;;;2.95;100.00;98644.97;10451788;28;20063;-78
2023/12/22 02:38:36;;;;;;;22.73;3.13;;;;;;;2.35;100.00;98640.69;10448983;28;20056;-78
2023/12/22 02:43:39;;;;;;;11.25;2.35;;;;;;;1.56;100.00;98672.03;10442785;28;20147;-81
2023/12/22 02:48:42;;;;;;;23.38;3.05;;;;;;;1.44;100.00;98664.97;10459044;28;20052;-83
2023/12/22 02:53:46;;;;;;;21.30;3.65;;;;;;;1.56;100.00;98628.84;10486082;28;20041;-82
2023/12/22 02:58:49;;;;;;;21.08;3.50;;;;;;;1.43;100.00;98616.50;10471050;28;20096;-83
2023/12/22 03:03:52;;;;;;;16.55;1.92;;;;;;;1.12;100.00;98609.88;10460273;28;20049;-83
2023/12/22 03:08:57;;;;;;;20.55;3.75;;;;;;;1.23;100.00;98604.66;10506442;28;20048;-84
2023/12/22 03:14:00;;;;;;;20.17;3.13;;;;;;;1.38;100.00;98604.56;10514088;28;20071;-83
2023/12/22 03:19:04;;;;;;;18.80;2.90;;;;;;;1.58;100.00;98611.06;10487470;28;20045;-80
2023/12/22 03:24:08;;;;;;;16.60;3.05;;;;;;;1.63;100.00;98577.16;10446400;28;20049;-84
2023/12/22 03:29:11;;;;;;;20.92;3.28;;;;;;;1.72;100.00;98592.38;10485689;28;20057;-82
2023/12/22 03:34:14;;;;;;;29.88;3.58;;;;;;;2.02;100.00;98591.06;10469284;28;20049;-83
2023/12/22 03:39:19;;;;;;;22.80;3.03;;;;;;;1.99;100.00;98594.78;10476050;28;20592;-80
2023/12/22 03:44:22;;;;;;;20.55;4.07;;;;;;;2.32;100.00;98575.53;10489271;28;20502;-83
2023/12/22 03:49:28;;;;;;;19.25;3.88;;;;;;;2.23;100.00;98570.94;10494503;28;20062;-81
2023/12/22 03:54:33;;;;;;;27.92;3.33;;;;;;;2.68;100.00;98575.53;10479140;28;20047;-81
2023/12/22 03:59:36;;;;;;;22.95;3.65;;;;;;;2.48;100.00;98577.88;10489723;28;20040;-80
2023/12/22 04:04:39;;;;;;;22.00;3.35;;;;;;;2.92;100.00;98589.53;10483339;28;20803;-82
2023/12/22 04:09:43;;;;;;;20.42;2.65;;;;;;;2.45;100.00;98590.50;10493811;28;20047;-81
2023/12/22 04:14:46;;;;;;;19.13;3.03;;;;;;;2.27;100.00;98590.09;10480587;28;20522;-80
2023/12/22 04:19:49;;;;;;;16.17;2.75;;;;;;;2.03;100.00;98606.88;10501260;28;20228;-80
2023/12/22 04:24:54;;;;;;;18.10;3.17;;;;;;;2.23;100.00;98605.38;10485129;28;20040;-81
2023/12/22 04:29:58;;;;;;;16.60;2.78;;;;;;;2.52;100.00;98610.28;10502636;28;20539;-82
2023/12/22 04:35:01;;;;;;;21.00;3.65;;;;;;;2.26;100.00;98610.44;10485275;28;20040;-81
2023/12/22 04:40:06;;;;;;;15.50;2.38;;;;;;;2.60;100.00;98590.19;10470998;28;20120;-80
2023/12/22 04:45:10;;;;;;;13.80;1.83;;;;;;;2.57;100.00;98584.28;10467038;28;20051;-80
2023/12/22 04:50:13;;;;;;;13.40;1.92;;;;;;;2.71;100.00;98586.72;10502727;28;20040;-81
2023/12/22 04:55:18;;;;;;;7.15;1.65;;;;;;;2.69;100.00;98593.97;10455215;28;20036;-81
2023/12/22 05:00:21;;;;;;;5.70;1.85;;;;;;;2.71;100.00;98607.09;10501481;28;20048;-81
2023/12/22 05:05:24;;;;;;;9.23;2.47;;;;;;;2.90;100.00;98617.97;10469454;28;20045;-81
2023/12/22 05:10:30;;;;;;;7.78;1.35;;;;;;;2.47;100.00;98605.34;10457721;28;20049;-81
2023/12/22 05:15:33;;;;;;;11.60;1.17;;;;;;;2.27;100.00;98620.06;10483625;28;20463;-83
2023/12/22 05:20:36;;;;;;;12.85;2.80;;;;;;;2.65;100.00;98613.72;10468887;28;20071;-80
2023/12/22 05:25:41;;;;;;;6.88;1.52;;;;;;;2.57;100.00;98601.03;10463089;28;20046;-80
2023/12/22 05:30:44;;;;;;;11.10;2.13;;;;;;;2.70;100.00;98593.00;10500135;28;20044;-82
2023/12/22 05:35:47;;;;;;;6.00;1.02;;;;;;;2.14;100.00;98641.34;10499866;28;20131;-81
2023/12/22 05:40:51;;;;;;;7.45;0.77;;;;;;;1.83;100.00;98626.00;10498789;28;20048;-83
2023/12/22 05:45:54;;;;;;;7.90;1.88;;;;;;;1.61;100.00;98643.44;10469029;28;20095;-82
2023/12/22 05:50:57;;;;;;;10.57;1.17;;;;;;;1.61;100.00;98621.41;10497473;28;20051;-81
2023/12/22 05:56:05;;;;;;;6.60;1.08;;;;;;;1.54;100.00;98606.94;10485567;28;20044;-82
2023/12/22 06:01:08;;;;;;;16.77;1.83;;;;;;;1.69;100.00;98632.28;10492770;28;20049;-82
2023/12/22 06:06:11;;;;;;;8.45;1.48;;;;;;;1.94;100.00;98626.91;10454190;28;20075;-83
2023/12/22 06:11:17;;;;;;;10.75;1.67;;;;;;;2.11;100.00;98633.63;10471604;28;20159;-84
2023/12/22 06:16:21;;;;;;;9.60;1.33;;;;;;;2.02;100.00;98649.34;10473331;28;20652;-81
2023/12/22 06:21:24;;;;;;;13.93;2.35;;;;;;;2.25;100.00;98652.94;10484389;28;20480;-81
2023/12/22 06:26:29;;;;;;;9.00;1.55;;;;;;;2.31;100.00;98636.59;10468336;28;20068;-80
2023/12/22 06:31:32;;;;;;;6.68;1.60;;;;;;;2.52;100.00;98681.84;10455512;28;20044;-81
2023/12/22 06:36:35;;;;;;;13.95;2.00;;;;;;;2.50;100.00;98683.78;10454527;28;20052;-80
2023/12/22 06:41:39;;;;;;;13.20;1.45;;;;;;;2.80;100.00;98710.66;10436974;28;20512;-83
2023/12/22 06:46:42;;;;;;;15.40;2.17;;;;;;;2.82;100.00;98695.47;10455925;28;20037;-81
2023/12/22 06:51:45;;;;;;;16.60;2.60;;;;;;;2.83;100.00;98699.81;10494908;28;20040;-83
2023/12/22 06:56:52;;;;;;;21.05;2.30;;;;;;;3.02;100.00;98720.50;10479334;28;20106;-82
2023/12/22 07:01:55;;;;;;;12.20;2.17;;;;;;;2.86;100.00;98705.88;10497385;28;20108;-81
2023/12/22 07:07:14;;;;;;;19.05;2.17;;;;;;;2.96;100.00;98720.97;10478766;28;20072;-82
2023/12/22 07:12:18;;;;;;;15.25;1.75;;;;;;;2.96;100.00;98723.63;10499217;28;20120;-82
2023/12/22 07:17:23;;;;;;;19.73;3.22;;;;;;;3.18;99.57;98737.88;10504592;28;20107;-81
2023/12/22 07:22:26;;;;;;;20.38;2.55;;;;;;;3.26;99.08;98748.75;10506857;28;20048;-82
2023/12/22 07:27:32;;;;;;;23.52;4.07;;;;;;;3.30;99.29;98734.28;10506560;28;20048;-81
2023/12/22 07:32:35;;;;;;;20.00;2.13;;;;;;;3.54;99.89;98746.59;10498679;28;20063;-80
2023/12/22 07:37:38;;;;;;;20.38;2.50;;;;;;;3.61;100.00;98759.28;10515147;28;20155;-80
2023/12/22 07:42:43;;;;;;;20.58;3.28;;;;;;;3.63;100.00;98761.84;10517744;28;20135;-83
2023/12/22 07:47:46;;;;;;;14.80;2.67;;;;;;;3.45;99.43;98761.44;10484771;28;20045;-81
2023/12/22 07:52:50;;;;;;;16.00;2.40;;;;;;;3.26;99.42;98784.09;10487311;28;20533;-82
2023/12/22 07:57:54;;;;;;;14.68;2.35;;;;;;;3.60;97.41;98778.84;10453869;28;20048;-82
2023/12/22 08:02:57;;;;;;;14.15;2.65;;;;;;;3.72;97.50;98785.00;10486832;28;20059;-83
2023/12/22 08:08:00;;;;;;;15.93;2.47;;;;;;;3.50;98.09;98791.13;10485218;28;20131;-78
2023/12/22 08:13:05;;;;;;;14.32;2.45;;;;;;;3.71;96.72;98794.78;10494774;28;20048;-81
2023/12/22 08:18:08;;;;;;;17.67;3.10;;;;;;;3.73;97.51;98805.31;10472036;28;20143;-80
2023/12/22 08:23:12;;;;;;;24.95;3.60;;;;;;;3.58;97.60;98807.31;10481930;28;20106;-84
2023/12/22 08:28:17;;;;;;;16.65;2.95;;;;;;;3.89;96.51;98799.63;10454032;28;20060;-81
2023/12/22 08:33:20;;;;;;;13.40;2.80;;;;;;;3.87;96.06;98805.06;10480233;28;20053;-81
2023/12/22 08:38:23;;;;;;;12.43;3.05;;;;;;;3.95;95.21;98810.63;10472671;28;20041;-81
2023/12/22 08:43:27;;;;;;;18.75;2.17;;;;;;;3.78;96.24;98818.22;10487315;28;20086;-80
2023/12/22 08:48:31;;;;;;;21.63;2.72;;;;;;;3.80;98.98;98824.25;10453726;28;20585;-80
2023/12/22 08:53:37;;;;;;;21.77;3.33;;;;;;;3.84;99.12;98805.31;10457174;28;20044;-81
2023/12/22 08:58:42;;;;;;;17.88;2.80;;;;;;;4.42;96.65;98845.03;10480602;28;20053;-82
2023/12/22 09:03:46;;;;;;;16.27;2.50;;;;;;;4.24;95.32;98826.06;10476482;28;20044;-82
2023/12/22 09:08:49;;;;;;;16.33;3.33;;;;;;;4.39;95.09;98808.06;10483858;28;20147;-81
2023/12/22 09:13:54;;;;;;;18.33;2.17;;;;;;;4.25;97.04;98818.94;10480143;28;20526;-79
2023/12/22 09:18:58;;;;;;;16.10;2.53;;;;;;;4.75;95.20;98809.53;10474853;28;20168;-80
2023/12/22 09:24:00;;;;;;;18.80;2.80;;;;;;;4.29;98.10;98815.06;10478698;28;20093;-81
2023/12/22 09:29:05;;;;;;;12.38;2.03;;;;;;;4.50;97.53;98817.81;10470966;28;20047;-79
2023/12/22 09:34:08;;;;;;;17.25;2.95;;;;;;;4.34;99.44;98828.84;10454375;28;20443;-81
2023/12/22 09:39:16;;;;;;;17.25;2.40;;;;;;;4.18;100.00;98834.53;10494524;28;20044;-79
2023/12/22 09:44:22;;;;;;;9.90;1.67;;;;;;;4.40;99.49;98823.88;10437986;28;20049;-81
2023/12/22 09:49:25;;;;;;;13.38;2.47;;;;;;;4.28;100.00;98816.91;10448468;28;20051;-81
2023/12/22 09:54:29;;;;;;;15.38;2.22;;;;;;;4.49;100.00;98838.22;10448871;28;20702;-81
2023/12/22 09:59:34;;;;;;;7.28;1.65;;;;;;;4.22;100.00;98803.22;10473012;28;20112;-80
2023/12/22 10:04:37;;;;;;;5.72;1.50;;;;;;;4.33;100.00;98805.88;10439010;28;20166;-81
2023/12/22 10:09:41;;;;;;;13.00;1.85;;;;;;;4.49;100.00;98779.75;10471885;28;20075;-79
2023/12/22 10:14:47;;;;;;;9.27;1.63;;;;;;;4.30;100.00;98785.69;10456699;28;20575;-82
2023/12/22 10:19:50;;;;;;;8.85;1.63;;;;;;;4.15;100.00;98773.66;10481307;28;20041;-80
2023/12/22 10:24:53;;;;;;;4.90;1.15;;;;;;;4.42;100.00;98762.63;10449840;28;20063;-78
2023/12/22 10:29:58;;;;;;;12.20;2.15;;;;;;;4.13;100.00;98757.81;10466169;28;20082;-81
2023/12/22 10:35:01;;;;;;;7.65;1.42;;;;;;;4.37;100.00;98762.97;10473478;28;20044;-81
2023/12/22 10:40:06;;;;;;;8.63;1.05;;;;;;;4.07;100.00;98754.81;10485144;28;20045;-81
2023/12/22 10:45:10;;;;;;;8.65;2.30;;;;;;;4.69;100.00;98762.19;10450184;28;20591;-80
2023/12/22 10:50:14;;;;;;;8.95;1.60;;;;;;;4.34;100.00;98744.63;10469692;28;20044;-80
2023/12/22 10:55:17;;;;;;;4.22;1.23;;;;;;;4.31;100.00;98749.34;10490202;28;20064;-79
2023/12/22 11:00:23;;;;;;;8.45;0.93;;;;;;;4.41;100.00;98729.00;10481117;28;20095;-78
2023/12/22 11:05:28;;;;;;;8.88;1.70;;;;;;;4.46;100.00;98750.75;10482689;28;20063;-80
2023/12/22 11:10:33;;;;;;;6.30;1.65;;;;;;;4.74;100.00;98727.19;10479140;28;20036;-80
2023/12/22 11:15:40;;;;;;;3.53;0.93;;;;;;;4.54;100.00;98720.88;10448865;28;20048;-81
2023/12/22 11:20:44;;;;;;;8.35;1.15;;;;;;;4.72;100.00;98724.69;10473651;28;20080;-79
2023/12/22 11:25:50;;;;;;;4.22;1.02;;;;;;;4.54;100.00;98718.22;10470694;28;20053;-80
2023/12/22 11:30:56;;;;;;;7.57;2.30;;;;;;;4.86;100.00;98704.91;10456427;28;20068;-79
2023/12/22 11:36:02;;;;;;;6.13;1.48;;;;;;;4.67;100.00;98702.94;10477620;28;20045;-80
2023/12/22 11:41:06;;;;;;;6.90;1.25;;;;;;;4.44;100.00;98717.28;10486556;28;20051;-81
2023/12/22 11:46:11;;;;;;;9.20;1.70;;;;;;;4.68;100.00;98704.63;10454819;28;20045;-79
2023/12/22 11:51:15;;;;;;;4.30;1.23;;;;;;;4.55;100.00;98718.09;10455901;28;20045;-81
2023/12/22 11:56:20;;;;;;;10.35;0.90;;;;;;;4.64;100.00;98713.00;10454955;28;20128;-80
2023/12/22 12:01:25;;;;;;;7.95;1.50;;;;;;;4.70;100.00;98691.19;10488352;28;20052;-79
2023/12/22 12:06:33;;;;;;;4.32;1.30;;;;;;;4.35;100.00;98695.78;10461100;28;20131;-79
2023/12/22 12:12:12;;;;;;;5.82;1.50;;;;;;;4.62;100.00;98703.31;10466191;28;20475;-79
2023/12/22 12:17:20;;;;;;;4.60;1.10;;;;;;;4.58;100.00;98690.38;10482223;28;20147;-78
2023/12/22 12:22:24;;;;;;;11.45;1.40;;;;;;;4.81;100.00;98675.19;10480907;28;20377;-80
2023/12/22 12:27:28;;;;;;;2.90;0.80;;;;;;;4.62;100.00;98660.75;10475261;28;20037;-79
2023/12/22 12:32:33;;;;;;;4.40;1.13;;;;;;;4.29;100.00;98688.31;10489313;28;20037;-80
2023/12/22 12:37:37;;;;;;;11.02;0.95;;;;;;;4.65;100.00;98682.75;10437129;28;20579;-80
2023/12/22 12:42:41;;;;;;;3.85;0.90;;;;;;;4.48;100.00;98671.72;10490943;28;20044;-80
2023/12/22 12:47:45;;;;;;;6.70;1.08;;;;;;;4.77;100.00;98677.25;10472910;28;20041;-81
2023/12/22 12:52:49;;;;;;;3.35;1.20;;;;;;;4.67;100.00;98675.50;10474993;28;20080;-81
2023/12/22 12:57:53;;;;;;;3.00;0.80;;;;;;;4.56;100.00;98663.94;10436707;28;20041;-80
2023/12/22 13:03:02;;;;;;;3.03;0.77;;;;;;;4.75;100.00;98668.56;10477330;28;20082;-80
2023/12/22 13:08:10;;;;;;;3.15;1.30;;;;;;;4.59;100.00;98679.63;10464403;28;20045;-81
2023/12/22 13:13:13;;;;;;;3.28;0.98;;;;;;;4.61;100.00;98653.75;10473732;28;20558;-80
2023/12/22 13:18:18;;;;;;;3.67;1.00;;;;;;;4.51;100.00;98655.50;10477037;28;20043;-78
2023/12/22 13:23:21;;;;;;;3.30;0.90;;;;;;;4.79;100.00;98677.97;10485595;28;20044;-80
2023/12/22 13:28:27;;;;;;;1.95;0.80;;;;;;;4.51;100.00;98687.41;10478518;28;20094;-79
2023/12/22 13:33:36;;;;;;;2.90;0.60;;;;;;;4.62;100.00;98694.50;10477600;28;20094;-80
2023/12/22 13:38:39;;;;;;;1.88;0.65;;;;;;;4.43;100.00;98671.25;10469333;28;20045;-77
2023/12/22 13:43:44;;;;;;;3.00;0.75;;;;;;;4.59;100.00;98662.84;10483684;28;20041;-79
2023/12/22 13:48:49;;;;;;;2.90;1.25;;;;;;;4.90;100.00;98681.53;10458161;28;20364;-80
2023/12/22 13:53:52;;;;;;;5.13;0.93;;;;;;;4.63;100.00;98677.56;10475920;28;20071;-80
2023/12/22 13:58:55;;;;;;;1.58;0.57;;;;;;;4.66;100.00;98663.16;10444564;28;20389;-80
2023/12/22 14:03:59;;;;;;;1.67;0.60;;;;;;;4.57;100.00;98662.94;10450162;28;20044;-77
2023/12/22 14:09:02;;;;;;;0.80;0.38;;;;;;;4.21;100.00;98666.84;10467816;28;20051;-79
2023/12/22 14:14:05;;;;;;;5.20;0.60;;;;;;;3.89;100.00;98680.09;10474450;28;20140;-80
2023/12/22 14:19:09;;;;;;;1.73;0.55;;;;;;;4.37;100.00;98661.97;10478953;28;20553;-79
2023/12/22 14:24:12;;;;;;;1.80;0.60;;;;;;;4.10;100.00;98664.22;10466383;28;20131;-80
2023/12/22 14:29:15;;;;;;;1.38;0.50;;;;;;;4.26;100.00;98637.25;10475098;28;20043;-78
2023/12/22 14:34:20;;;;;;;1.30;0.47;;;;;;;4.06;100.00;98637.06;10468247;28;20049;-79
2023/12/22 14:39:23;;;;;;;1.05;0.35;;;;;;;4.28;100.00;98637.94;10456451;28;20067;-80
2023/12/22 14:44:26;;;;;;;2.35;0.38;;;;;;;4.00;100.00;98666.78;10453574;28;20568;-78
2023/12/22 14:49:30;;;;;;;4.53;0.88;;;;;;;4.15;100.00;98667.34;10487890;28;20051;-78
2023/12/22 14:54:33;;;;;;;2.05;0.65;;;;;;;3.98;100.00;98651.94;10474736;28;20037;-80
2023/12/22 14:59:36;;;;;;;1.85;0.40;;;;;;;4.10;100.00;98642.97;10495339;28;20094;-79
2023/12/22 15:04:41;;;;;;;4.32;0.93;;;;;;;4.06;100.00;98650.34;10473088;28;20060;-79
2023/12/22 15:09:44;;;;;;;1.23;0.60;;;;;;;4.06;100.00;98653.00;10457441;28;20063;-79
2023/12/22 15:14:49;;;;;;;1.70;0.63;;;;;;;3.96;100.00;98652.06;10454100;28;20048;-79
2023/12/22 15:19:53;;;;;;;1.13;0.40;;;;;;;4.16;100.00;98653.94;10448162;28;20044;-80
2023/12/22 15:24:56;;;;;;;2.75;0.80;;;;;;;4.13;100.00;98637.41;10478051;28;20049;-79
2023/12/22 15:29:59;;;;;;;3.42;0.60;;;;;;;4.12;100.00;98657.81;10467107;28;20060;-80
2023/12/22 15:35:05;;;;;;;1.13;0.50;;;;;;;4.06;100.00;98665.44;10469623;28;20135;-79
2023/12/22 15:40:10;;;;;;;0.90;0.70;;;;;;;4.00;100.00;98671.25;10477414;28;20048;-80
2023/12/22 15:45:13;;;;;;;0.88;0.70;;;;;;;3.99;100.00;98669.56;10481007;28;20448;-80
2023/12/22 15:50:18;;;;;;;1.15;0.50;;;;;;;4.07;100.00;98654.69;10470777;28;20139;-78
2023/12/22 15:55:21;;;;;;;6.32;1.00;;;;;;;4.40;100.00;98669.69;10489276;28;20052;-80
2023/12/22 16:00:25;;;;;;;2.80;0.73;;;;;;;4.02;100.00;98693.22;10489996;28;20047;-80
2023/12/22 16:05:30;;;;;;;2.58;0.50;;;;;;;4.08;100.00;98680.28;10491913;28;20496;-80
2023/12/22 16:10:33;;;;;;;4.70;0.70;;;;;;;4.36;100.00;98672.72;10476508;28;20033;-80
2023/12/22 16:15:36;;;;;;;1.75;0.60;;;;;;;4.18;100.00;98643.19;10446230;28;20080;-79
2023/12/22 16:20:40;;;;;;;1.77;0.80;;;;;;;4.29;100.00;98690.97;10460565;28;20045;-80
2023/12/22 16:25:43;;;;;;;1.10;0.43;;;;;;;4.28;100.00;98683.13;10493895;28;20103;-81
2023/12/22 16:30:46;;;;;;;2.75;0.90;;;;;;;4.55;100.00;98661.41;10477458;28;20050;-79
2023/12/22 16:35:51;;;;;;;2.45;0.73;;;;;;;4.68;100.00;98655.91;10469564;28;20060;-82
2023/12/22 16:40:55;;;;;;;1.67;1.27;;;;;;;4.50;100.00;98658.28;10479065;28;20045;-81
2023/12/22 16:45:58;;;;;;;4.38;1.30;;;;;;;4.59;100.00;98686.78;10474778;28;20200;-80
2023/12/22 16:51:02;;;;;;;0.50;0.25;;;;;;;4.51;100.00;98682.09;10470695;28;20465;-80
2023/12/22 16:56:06;;;;;;;2.47;0.30;;;;;;;4.77;100.00;98676.41;10470716;28;20070;-80
2023/12/22 17:01:09;;;;;;;3.70;1.10;;;;;;;4.76;100.00;98680.88;10452137;28;20056;-79
2023/12/22 17:06:33;;;;;;;3.38;0.77;;;;;;;4.85;100.00;98650.00;10490159;28;20098;-80
2023/12/22 17:11:36;;;;;;;1.02;0.70;;;;;;;4.63;100.00;98653.63;10501551;28;20036;-79
2023/12/22 17:16:39;;;;;;;1.95;0.88;;;;;;;4.79;100.00;98640.72;10455157;28;20861;-80
2023/12/22 17:21:44;;;;;;;0.75;0.40;;;;;;;4.88;100.00;98663.03;10442747;28;20044;-79
2023/12/22 17:26:47;;;;;;;1.48;0.50;;;;;;;4.77;100.00;98674.59;10478152;28;20048;-80
2023/12/22 17:31:52;;;;;;;0.82;0.20;;;;;;;4.96;100.00;98659.72;10466151;28;20498;-80
2023/12/22 17:36:56;;;;;;;0.82;0.30;;;;;;;5.22;94.33;98678.84;10453574;28;20167;-80
2023/12/22 17:41:59;;;;;;;1.42;0.40;;;;;;;5.17;91.02;98678.38;10485057;28;20048;-79
2023/12/22 17:47:04;;;;;;;0.20;0.20;;;;;;;5.31;86.69;98693.16;10475032;28;20076;-80
2023/12/22 17:52:09;;;;;;;1.13;0.30;;;;;;;5.20;84.30;98697.59;10463174;28;20431;-80
2023/12/22 17:57:13;;;;;;;1.27;0.30;;;;;;;5.23;86.02;98753.22;10477863;28;20040;-79
2023/12/22 18:02:17;;;;;;;1.63;0.25;;;;;;;4.96;86.27;98737.72;10493211;28;20143;-80
2023/12/22 18:07:22;;;;;;;1.77;0.20;;;;;;;5.10;85.76;98736.63;10476914;28;20053;-80
2023/12/22 18:12:25;;;;;;;3.63;0.52;;;;;;;4.96;86.19;98769.66;10466693;28;20411;-79
2023/12/22 18:17:28;;;;;;;4.50;0.50;;;;;;;5.44;86.87;98769.19;10469811;28;20047;-79
2023/12/22 18:22:33;;;;;;;3.92;0.50;;;;;;;5.33;86.72;98758.63;10481083;28;20047;-80
2023/12/22 18:27:36;;;;;;;2.53;0.60;;;;;;;5.64;86.28;98753.31;10426275;28;20041;-80
2023/12/22 18:32:40;;;;;;;2.15;0.30;;;;;;;5.05;86.97;98762.78;10492665;28;20063;-79
2023/12/22 18:37:45;;;;;;;7.90;0.70;;;;;;;5.36;86.22;98762.84;10478247;28;20033;-80
2023/12/22 18:42:48;;;;;;;2.03;0.40;;;;;;;5.30;85.86;98801.47;10450775;28;20045;-81
2023/12/22 18:47:51;;;;;;;2.40;0.50;;;;;;;5.19;86.04;98825.50;10437597;28;20059;-78
2023/12/22 18:52:56;;;;;;;9.15;0.95;;;;;;;5.33;86.08;98816.34;10452895;28;20562;-80
2023/12/22 18:57:59;;;;;;;2.20;0.90;;;;;;;5.49;86.43;98824.75;10479461;28;20048;-79
2023/12/22 19:03:02;;;;;;;3.90;0.63;;;;;;;5.06;87.28;98836.31;10480980;28;20033;-79
2023/12/22 19:08:07;;;;;;;6.43;1.60;;;;;;;5.55;86.05;98812.72;10452169;28;20078;-80
2023/12/22 19:13:10;;;;;;;6.32;0.70;;;;;;;5.42;87.63;98832.38;10468407;28;20052;-78
2023/12/22 19:18:13;;;;;;;1.90;0.57;;;;;;;4.97;89.59;98824.59;10479556;28;20145;-79
2023/12/22 19:23:17;;;;;;;4.30;0.90;;;;;;;4.97;88.83;98845.88;10484598;28;20094;-79
2023/12/22 19:28:22;;;;;;;6.22;0.70;;;;;;;5.42;89.19;98860.84;10505719;28;20047;-80
2023/12/22 19:33:26;;;;;;;5.72;1.00;;;;;;;4.97;90.30;98851.19;10475626;28;20048;-80
2023/12/22 19:38:30;;;;;;;5.65;1.00;;;;;;;5.32;90.93;98894.53;10470233;28;20661;-80
2023/12/22 19:43:33;;;;;;;6.70;1.35;;;;;;;5.05;97.53;98906.50;10489335;28;20120;-81
2023/12/22 19:48:36;;;;;;;4.80;1.58;;;;;;;5.25;97.02;98919.00;10467005;28;20119;-80
2023/12/22 19:53:40;;;;;;;9.57;1.10;;;;;;;5.23;96.63;98944.91;10467806;28;20036;-79
2023/12/22 19:58:43;;;;;;;3.78;0.73;;;;;;;4.32;100.00;98937.09;10484181;28;20041;-79
2023/12/22 20:03:46;;;;;;;5.05;1.33;;;;;;;5.04;99.51;98958.84;10482858;28;20036;-80
2023/12/22 20:08:51;;;;;;;8.30;1.13;;;;;;;4.94;100.00;98959.72;10463708;28;20052;-80
2023/12/22 20:13:54;;;;;;;3.85;0.95;;;;;;;4.73;100.00;98973.75;10454890;28;20044;-79
2023/12/22 20:18:58;;;;;;;4.85;0.93;;;;;;;4.39;100.00;98979.06;10467670;28;20560;-79
2023/12/22 20:24:03;;;;;;;4.00;1.23;;;;;;;4.32;100.00;98971.66;10467439;28;20048;-79
2023/12/22 20:29:07;;;;;;;8.85;1.40;;;;;;;4.71;100.00;98975.66;10484250;28;20107;-79
2023/12/22 20:34:10;;;;;;;8.68;1.90;;;;;;;4.74;98.51;98979.91;10445783;28;20045;-77
2023/12/22 20:39:14;;;;;;;5.47;0.80;;;;;;;4.77;99.10;98979.66;10474945;28;20559;-79
2023/12/22 20:44:18;;;;;;;12.82;1.63;;;;;;;4.58;100.00;98985.56;10473629;28;20051;-79
2023/12/22 20:49:22;;;;;;;4.65;0.82;;;;;;;4.26;100.00;98986.28;10478303;28;20167;-80
2023/12/22 20:54:28;;;;;;;4.28;0.75;;;;;;;4.55;100.00;99018.59;10465867;28;20072;-80
2023/12/22 20:59:31;;;;;;;3.38;0.55;;;;;;;4.05;100.00;99030.44;10470492;28;20045;-78
2023/12/22 21:04:37;;;;;;;4.80;0.38;;;;;;;4.34;100.00;99007.81;10488582;28;20040;-79
2023/12/22 21:09:42;;;;;;;8.48;0.60;;;;;;;4.28;100.00;99023.34;10478175;28;20412;-78
2023/12/22 21:14:45;;;;;;;1.60;0.47;;;;;;;3.99;100.00;99025.59;10485673;28;20055;-79
2023/12/22 21:19:52;;;;;;;3.60;0.60;;;;;;;4.28;100.00;99055.25;10473474;28;20041;-79
2023/12/22 21:24:57;;;;;;;4.57;0.68;;;;;;;4.40;100.00;99067.63;10491383;28;20105;-79
2023/12/22 21:30:00;;;;;;;9.32;0.95;;;;;;;4.31;100.00;99063.03;10487078;28;20040;-78
2023/12/22 21:35:03;;;;;;;3.38;0.63;;;;;;;4.35;100.00;99060.00;10458727;28;20077;-79
2023/12/22 21:40:09;;;;;;;3.08;0.55;;;;;;;4.34;100.00;99060.13;10476707;28;20063;-79
2023/12/22 21:45:17;;;;;;;3.05;0.65;;;;;;;4.18;100.00;99052.47;10496299;28;20403;-80
2023/12/22 21:50:20;;;;;;;4.75;0.60;;;;;;;4.15;100.00;99073.97;10458243;28;20477;-79
2023/12/22 21:55:24;;;;;;;4.13;1.00;;;;;;;4.21;100.00;99068.19;10465260;28;20052;-80
2023/12/22 22:00:27;;;;;;;5.45;0.90;;;;;;;4.22;100.00;99083.16;10465997;28;20506;-80
2023/12/22 22:05:32;;;;;;;5.30;1.60;;;;;;;4.26;100.00;99089.94;10447969;28;20492;-79
2023/12/22 22:10:37;;;;;;;4.68;0.77;;;;;;;3.79;100.00;99096.16;10459239;28;20048;-79
2023/12/22 22:15:40;;;;;;;6.30;1.00;;;;;;;3.78;100.00;99103.25;10470485;28;20051;-79
2023/12/22 22:20:43;;;;;;;2.85;0.50;;;;;;;3.42;100.00;99133.31;10480404;28;20041;-79
2023/12/22 22:25:47;;;;;;;4.80;0.75;;;;;;;3.06;100.00;99142.91;10478057;28;20040;-78
2023/12/22 22:30:50;;;;;;;2.88;0.60;;;;;;;2.97;100.00;99143.56;10481172;28;20052;-79
2023/12/22 22:35:53;;;;;;;4.82;0.63;;;;;;;3.33;100.00;99155.22;10470036;28;20445;-79
2023/12/22 22:40:57;;;;;;;2.10;0.60;;;;;;;2.91;100.00;99179.31;10455338;28;20115;-80
2023/12/22 22:46:01;;;;;;;0.68;0.20;;;;;;;2.75;100.00;99162.75;10467554;28;20079;-79
2023/12/22 22:51:04;;;;;;;3.85;0.50;;;;;;;2.79;100.00;99214.63;10459091;28;20106;-82
2023/12/22 22:56:09;;;;;;;1.98;0.20;;;;;;;2.82;100.00;99233.81;10471923;28;20045;-80
2023/12/22 23:01:12;;;;;;;1.25;0.28;;;;;;;2.98;100.00;99241.59;10479038;28;20061;-80
2023/12/22 23:06:17;;;;;;;2.33;0.20;;;;;;;2.74;100.00;99256.50;10469840;28;20114;-80
2023/12/22 23:11:22;;;;;;;2.38;0.50;;;;;;;2.63;100.00;99262.50;10482695;28;20061;-81
2023/12/22 23:16:25;;;;;;;2.50;0.30;;;;;;;2.64;100.00;99269.53;10455986;28;20055;-81
2023/12/22 23:21:28;;;;;;;3.22;0.60;;;;;;;2.92;100.00;99283.63;10493604;28;20040;-80
2023/12/22 23:26:32;;;;;;;5.35;0.70;;;;;;;2.70;100.00;99282.38;10479644;28;20548;-78
2023/12/22 23:31:35;;;;;;;6.15;1.00;;;;;;;3.08;100.00;99299.34;10471580;28;20411;-80